Time;durP1;ratioP1;P1;durP2;ratioP2;P2;SDS_P1;SDS_P2;PMS_P1;PMS_P2;Temp;Humidity;BMP_temperature;BMP_pressure;BME280_temperature;BME280_humidity;BME280_pressure;Samples;Min_cycle;Max_cycle;Signal;HPM_P1;HPM_P2
2022/03/04 00:00:47;;;;;;;32.17;15.33;;;0.70;99.90;;;;;;5089742;28;20295;-77
2022/03/04 00:03:14;;;;;;;33.33;15.23;;;0.70;99.90;;;;;;5089771;28;20286;-80
2022/03/04 00:05:42;;;;;;;32.30;14.63;;;0.60;99.90;;;;;;5065018;28;20205;-80
2022/03/04 00:08:09;;;;;;;37.73;16.13;;;0.60;99.90;;;;;;5093216;28;20233;-79
2022/03/04 00:10:37;;;;;;;31.97;15.77;;;0.60;99.90;;;;;;5088960;28;20241;-79
2022/03/04 00:13:05;;;;;;;33.00;16.63;;;0.60;99.90;;;;;;5094654;28;20283;-80
2022/03/04 00:15:32;;;;;;;32.77;15.37;;;0.60;99.90;;;;;;5089520;28;20561;-79
2022/03/04 00:17:59;;;;;;;33.73;15.77;;;0.50;99.90;;;;;;5085136;28;20203;-80
2022/03/04 00:20:26;;;;;;;36.53;15.63;;;0.40;99.90;;;;;;5085046;28;20251;-81
2022/03/04 00:22:53;;;;;;;34.53;16.73;;;0.40;99.90;;;;;;5094920;28;20238;-78
2022/03/04 00:25:21;;;;;;;35.47;15.97;;;0.30;99.90;;;;;;5087391;28;20302;-80
2022/03/04 00:27:48;;;;;;;36.57;16.67;;;0.30;99.90;;;;;;5072648;28;20294;-79
2022/03/04 00:30:15;;;;;;;39.90;16.50;;;0.20;99.90;;;;;;5075960;28;20203;-78
2022/03/04 00:32:42;;;;;;;38.40;16.93;;;0.20;99.90;;;;;;5075015;28;20270;-78
2022/03/04 00:35:09;;;;;;;39.17;17.00;;;0.20;99.90;;;;;;5091418;28;20219;-79
2022/03/04 00:37:36;;;;;;;35.10;18.07;;;0.20;99.90;;;;;;5083682;28;20234;-79
2022/03/04 00:40:05;;;;;;;32.77;15.43;;;0.10;99.90;;;;;;5071979;28;20220;-80
2022/03/04 00:42:32;;;;;;;42.37;19.00;;;0.10;99.90;;;;;;5100362;28;20230;-80
2022/03/04 00:44:59;;;;;;;40.77;17.50;;;0.00;99.90;;;;;;5095826;28;20244;-79
2022/03/04 00:47:26;;;;;;;41.47;17.00;;;0.00;99.90;;;;;;5081423;28;20639;-79
2022/03/04 00:49:54;;;;;;;34.13;16.57;;;0.00;99.90;;;;;;5097571;28;20232;-78
2022/03/04 00:52:21;;;;;;;39.10;17.03;;;0.00;99.90;;;;;;5092101;28;20281;-80
2022/03/04 00:54:47;;;;;;;34.30;16.17;;;-0.10;99.90;;;;;;5090730;28;20794;-79
2022/03/04 00:57:15;;;;;;;39.37;17.53;;;-0.10;99.90;;;;;;5089853;28;20976;-80
2022/03/04 00:59:42;;;;;;;37.87;17.63;;;-0.10;99.90;;;;;;5084049;28;20421;-79
2022/03/04 01:02:09;;;;;;;35.97;17.93;;;-0.20;99.90;;;;;;5085562;28;20219;-78
2022/03/04 01:04:36;;;;;;;38.10;17.17;;;-0.20;99.90;;;;;;5091299;28;20248;-79
2022/03/04 01:07:03;;;;;;;44.07;18.43;;;-0.20;99.90;;;;;;5091422;28;20208;-79
2022/03/04 01:09:30;;;;;;;37.47;16.07;;;-0.20;99.90;;;;;;5087391;28;20622;-80
2022/03/04 01:11:57;;;;;;;37.03;17.17;;;-0.20;99.90;;;;;;5083152;28;20243;-80
2022/03/04 01:14:25;;;;;;;37.93;18.63;;;-0.20;99.90;;;;;;5093417;28;20546;-79
2022/03/04 01:16:53;;;;;;;40.67;18.93;;;-0.20;99.90;;;;;;5091509;28;20307;-79
2022/03/04 01:19:20;;;;;;;43.87;18.00;;;-0.20;99.90;;;;;;5103089;28;20576;-79
2022/03/04 01:21:47;;;;;;;37.80;17.17;;;-0.20;99.90;;;;;;5088456;28;20228;-79
2022/03/04 01:24:14;;;;;;;33.90;16.13;;;-0.30;99.90;;;;;;5092570;28;20858;-79
2022/03/04 01:26:41;;;;;;;38.63;16.57;;;-0.30;99.90;;;;;;5095951;28;20234;-79
2022/03/04 01:29:08;;;;;;;35.23;16.47;;;-0.30;99.90;;;;;;5092923;28;20207;-78
2022/03/04 01:31:35;;;;;;;43.07;17.33;;;-0.30;99.90;;;;;;5087264;28;20231;-79
2022/03/04 01:34:02;;;;;;;33.20;16.67;;;-0.40;99.90;;;;;;5091239;28;20667;-80
2022/03/04 01:36:33;;;;;;;38.13;17.17;;;-0.40;99.90;;;;;;5089630;28;20237;-78
2022/03/04 01:39:02;;;;;;;34.10;16.87;;;-0.40;99.90;;;;;;5092464;28;20250;-79
2022/03/04 01:41:29;;;;;;;39.23;17.23;;;-0.40;99.90;;;;;;5083112;28;20251;-79
2022/03/04 01:43:56;;;;;;;36.33;16.87;;;-0.50;99.90;;;;;;5093808;28;20258;-78
2022/03/04 01:46:28;;;;;;;35.20;16.47;;;-0.50;99.90;;;;;;5074174;28;20200;-78
2022/03/04 01:48:55;;;;;;;35.50;16.73;;;-0.40;99.90;;;;;;5097114;28;20212;-79
2022/03/04 01:51:22;;;;;;;36.60;16.17;;;-0.60;99.90;;;;;;5086415;28;20192;-79
2022/03/04 01:53:50;;;;;;;38.10;16.90;;;-0.60;99.90;;;;;;5087637;28;20218;-79
2022/03/04 01:56:17;;;;;;;38.10;16.90;;;-0.60;99.90;;;;;;5080911;28;20305;-78
2022/03/04 01:58:44;;;;;;;39.37;17.33;;;-0.70;99.90;;;;;;5074274;28;20204;-79
2022/03/04 02:01:11;;;;;;;40.90;17.33;;;-0.60;99.90;;;;;;5091283;28;20692;-80
2022/03/04 02:03:38;;;;;;;38.27;15.33;;;-0.70;99.90;;;;;;5072246;28;20240;-79
2022/03/04 02:06:05;;;;;;;41.93;17.50;;;-0.70;99.90;;;;;;5088982;28;20662;-80
2022/03/04 02:08:33;;;;;;;38.83;17.47;;;-0.70;99.90;;;;;;5089394;28;20214;-79
2022/03/04 02:11:01;;;;;;;40.63;16.57;;;-0.70;99.90;;;;;;5089429;28;20196;-79
2022/03/04 02:13:27;;;;;;;38.57;16.97;;;-0.80;99.90;;;;;;5089460;28;20207;-79
2022/03/04 02:15:54;;;;;;;36.50;16.53;;;-0.80;99.90;;;;;;5090301;28;20208;-79
2022/03/04 02:18:21;;;;;;;36.77;16.67;;;-0.80;99.90;;;;;;5073758;28;20235;-80
2022/03/04 02:20:51;;;;;;;38.73;16.13;;;-0.90;99.90;;;;;;5073382;28;20703;-79
2022/03/04 02:23:18;;;;;;;33.10;16.03;;;-0.90;99.90;;;;;;5086327;28;20259;-79
2022/03/04 02:25:48;;;;;;;37.43;16.40;;;-0.90;99.90;;;;;;5093941;28;20944;-79
2022/03/04 02:28:16;;;;;;;34.20;15.40;;;-0.90;99.90;;;;;;5086499;28;20563;-78
2022/03/04 02:30:43;;;;;;;33.30;16.37;;;-1.00;99.90;;;;;;5084715;28;20242;-79
2022/03/04 02:33:10;;;;;;;32.23;15.67;;;-1.00;99.90;;;;;;5093117;28;20326;-79
2022/03/04 02:35:39;;;;;;;41.50;17.57;;;-1.00;99.90;;;;;;5090850;28;20262;-79
2022/03/04 02:38:07;;;;;;;39.53;16.93;;;-1.00;99.90;;;;;;5073773;28;20212;-79
2022/03/04 02:40:33;;;;;;;40.50;17.10;;;-1.10;99.90;;;;;;5084980;28;20258;-78
2022/03/04 02:43:00;;;;;;;40.40;17.37;;;-1.10;99.90;;;;;;5075033;28;20321;-79
2022/03/04 02:45:27;;;;;;;38.77;16.27;;;-1.10;99.90;;;;;;5092614;28;20226;-80
2022/03/04 02:47:54;;;;;;;39.50;16.87;;;-1.10;99.90;;;;;;5055467;28;20232;-79
2022/03/04 02:50:21;;;;;;;37.97;17.00;;;-1.20;99.90;;;;;;5060810;28;20705;-78
2022/03/04 02:52:50;;;;;;;35.20;16.57;;;-1.20;99.90;;;;;;5088280;28;20323;-80
2022/03/04 02:55:16;;;;;;;38.30;15.73;;;-1.20;99.90;;;;;;5085031;28;20204;-79
2022/03/04 02:57:46;;;;;;;38.07;15.87;;;-1.10;99.90;;;;;;5093352;28;20215;-79
2022/03/04 03:00:15;;;;;;;38.97;16.80;;;-1.20;99.90;;;;;;5089055;28;20307;-78
2022/03/04 03:02:43;;;;;;;47.20;17.20;;;-1.30;99.90;;;;;;5093576;28;20266;-79
2022/03/04 03:05:12;;;;;;;39.07;16.43;;;-1.30;99.90;;;;;;5097661;28;20267;-80
2022/03/04 03:07:40;;;;;;;31.27;14.73;;;-1.30;99.90;;;;;;5087003;28;20208;-79
2022/03/04 03:10:08;;;;;;;33.70;15.53;;;-1.30;99.90;;;;;;5091143;28;20312;-78
2022/03/04 03:12:37;;;;;;;39.40;16.37;;;-1.30;99.90;;;;;;5092633;28;20746;-79
2022/03/04 03:15:04;;;;;;;40.37;17.60;;;-1.40;99.90;;;;;;5089302;28;20269;-80
2022/03/04 03:17:31;;;;;;;40.83;17.67;;;-1.40;99.90;;;;;;5086993;28;20231;-79
2022/03/04 03:19:58;;;;;;;36.83;14.67;;;-1.40;99.90;;;;;;5090033;28;20242;-80
2022/03/04 03:22:25;;;;;;;41.63;16.77;;;-1.40;99.90;;;;;;5076153;28;20235;-79
2022/03/04 03:24:52;;;;;;;40.27;15.87;;;-1.50;99.90;;;;;;5087995;28;20217;-80
2022/03/04 03:27:19;;;;;;;42.30;16.23;;;-1.40;99.90;;;;;;5089810;28;20288;-79
2022/03/04 03:29:46;;;;;;;37.93;15.37;;;-1.40;99.90;;;;;;5089403;28;20210;-79
2022/03/04 03:32:14;;;;;;;37.20;15.00;;;-1.30;99.90;;;;;;5088304;28;20239;-78
2022/03/04 03:34:41;;;;;;;39.60;16.67;;;-1.40;99.90;;;;;;5087174;28;20822;-79
2022/03/04 03:37:09;;;;;;;40.40;16.53;;;-1.50;99.90;;;;;;5088972;28;20919;-79
2022/03/04 03:39:37;;;;;;;34.20;16.00;;;-1.50;99.90;;;;;;5092588;28;20237;-78
2022/03/04 03:42:05;;;;;;;37.27;17.53;;;-1.50;99.90;;;;;;5075174;28;20971;-81
2022/03/04 03:44:31;;;;;;;35.77;15.67;;;-1.50;99.90;;;;;;5095544;28;20219;-79
2022/03/04 03:46:59;;;;;;;37.03;16.03;;;-1.50;99.90;;;;;;5085316;28;20204;-78
2022/03/04 03:49:26;;;;;;;39.27;15.83;;;-1.50;99.90;;;;;;5089639;28;20332;-78
2022/03/04 03:51:53;;;;;;;38.77;15.87;;;-1.50;99.90;;;;;;5091795;28;20253;-78
2022/03/04 03:54:20;;;;;;;40.47;16.10;;;-1.50;99.90;;;;;;5089916;28;20272;-79
2022/03/04 03:56:47;;;;;;;34.53;15.53;;;-1.50;99.90;;;;;;5069779;28;20250;-78
2022/03/04 03:59:14;;;;;;;38.63;16.17;;;-1.50;99.90;;;;;;5080662;28;20712;-79
2022/03/04 04:01:41;;;;;;;35.33;15.47;;;-1.50;99.90;;;;;;5071831;28;20205;-79
2022/03/04 04:04:14;;;;;;;32.63;14.67;;;-1.50;99.90;;;;;;5087991;28;20234;-79
2022/03/04 04:06:42;;;;;;;41.70;15.60;;;-1.50;99.90;;;;;;5094040;28;20203;-79
2022/03/04 04:09:10;;;;;;;38.60;15.93;;;-1.50;99.90;;;;;;5086390;28;20269;-81
2022/03/04 04:11:38;;;;;;;35.73;15.17;;;-1.60;99.90;;;;;;5080620;28;20627;-80
2022/03/04 04:14:09;;;;;;;38.70;16.27;;;-1.60;99.90;;;;;;5090092;28;20246;-80
2022/03/04 04:16:37;;;;;;;32.03;14.73;;;-1.60;99.90;;;;;;5091439;28;20263;-80
2022/03/04 04:19:04;;;;;;;35.10;14.97;;;-1.60;99.90;;;;;;5107091;28;20222;-78
2022/03/04 04:21:34;;;;;;;36.83;15.67;;;-1.60;99.90;;;;;;5093572;28;20208;-78
2022/03/04 04:24:01;;;;;;;32.43;13.97;;;-1.70;99.90;;;;;;5085340;28;20231;-77
2022/03/04 04:26:28;;;;;;;40.43;16.67;;;-1.70;99.90;;;;;;5103071;28;20208;-79
2022/03/04 04:28:55;;;;;;;36.57;16.00;;;-1.70;99.90;;;;;;5089344;28;20253;-79
2022/03/04 04:31:22;;;;;;;37.70;16.07;;;-1.70;99.90;;;;;;5085630;28;20224;-80
2022/03/04 04:33:49;;;;;;;35.97;16.07;;;-1.80;99.90;;;;;;5087495;28;20667;-79
2022/03/04 04:36:16;;;;;;;39.70;16.80;;;-1.80;99.90;;;;;;5082050;28;20245;-80
2022/03/04 04:38:43;;;;;;;44.07;16.73;;;-1.80;99.90;;;;;;5088990;28;20289;-78
2022/03/04 04:41:10;;;;;;;35.90;15.47;;;-1.80;99.90;;;;;;5071580;28;20247;-79
2022/03/04 04:43:37;;;;;;;38.80;15.13;;;-1.80;99.90;;;;;;5096020;28;20310;-80
2022/03/04 04:46:05;;;;;;;39.17;15.53;;;-1.80;99.90;;;;;;5088812;28;20225;-78
2022/03/04 04:48:32;;;;;;;33.33;15.47;;;-1.80;99.90;;;;;;5089449;28;20336;-79
2022/03/04 04:51:00;;;;;;;40.13;15.23;;;-1.90;99.90;;;;;;5094669;28;20254;-78
2022/03/04 04:53:29;;;;;;;34.73;14.67;;;-1.80;99.90;;;;;;5096646;28;20215;-79
2022/03/04 04:55:56;;;;;;;32.77;14.23;;;-1.90;99.90;;;;;;5085539;28;20214;-79
2022/03/04 04:58:23;;;;;;;38.20;15.13;;;-1.90;99.90;;;;;;5084999;28;20211;-78
2022/03/04 05:00:53;;;;;;;33.93;14.50;;;-1.90;99.90;;;;;;5087916;28;20340;-80
2022/03/04 05:03:22;;;;;;;36.90;15.47;;;-1.90;99.90;;;;;;5093611;28;20237;-79
2022/03/04 05:05:49;;;;;;;38.57;16.07;;;-1.90;99.90;;;;;;5067451;28;20204;-80
2022/03/04 05:08:17;;;;;;;32.67;14.47;;;-2.00;99.90;;;;;;5098508;28;20214;-79
2022/03/04 05:10:45;;;;;;;31.20;14.00;;;-1.90;99.90;;;;;;5085148;28;20293;-79
2022/03/04 05:13:11;;;;;;;35.10;15.87;;;-2.00;99.90;;;;;;5090261;28;20214;-79
2022/03/04 05:15:39;;;;;;;37.30;15.37;;;-2.00;99.90;;;;;;5087256;28;20268;-79
2022/03/04 05:18:08;;;;;;;32.87;14.23;;;-2.10;99.90;;;;;;5089603;28;20216;-79
2022/03/04 05:20:36;;;;;;;41.17;15.73;;;-2.10;99.90;;;;;;5075169;28;20238;-79
2022/03/04 05:23:03;;;;;;;38.67;14.87;;;-2.10;99.90;;;;;;5088080;28;20212;-78
2022/03/04 05:25:30;;;;;;;35.17;14.50;;;-2.10;99.90;;;;;;5090823;28;20220;-79
2022/03/04 05:27:57;;;;;;;36.63;15.00;;;-2.10;99.90;;;;;;5089270;28;20201;-80
2022/03/04 05:30:24;;;;;;;36.33;14.67;;;-2.20;99.90;;;;;;5095369;28;20222;-80
2022/03/04 05:32:51;;;;;;;39.63;15.30;;;-2.20;99.90;;;;;;5091598;28;20226;-80
2022/03/04 05:35:18;;;;;;;36.80;15.17;;;-2.20;99.90;;;;;;5082681;28;20201;-79
2022/03/04 05:37:45;;;;;;;37.37;14.90;;;-2.20;99.90;;;;;;5065535;28;20656;-79
2022/03/04 05:40:12;;;;;;;32.77;15.03;;;-2.20;99.90;;;;;;5100090;28;20246;-79
2022/03/04 05:42:39;;;;;;;39.13;15.47;;;-2.20;99.90;;;;;;5091449;28;20212;-79
2022/03/04 05:45:06;;;;;;;33.40;14.67;;;-2.30;99.90;;;;;;5093311;28;20289;-80
2022/03/04 05:47:33;;;;;;;36.83;14.77;;;-2.20;99.90;;;;;;5088503;28;20205;-78
2022/03/04 05:50:00;;;;;;;35.33;15.07;;;-2.20;99.90;;;;;;5089736;28;20299;-78
2022/03/04 05:52:27;;;;;;;36.50;14.83;;;-2.20;99.90;;;;;;5088180;28;20206;-80
2022/03/04 05:54:53;;;;;;;41.27;14.93;;;-2.20;99.90;;;;;;5095190;28;20267;-79
2022/03/04 05:57:20;;;;;;;41.33;15.23;;;-2.30;99.90;;;;;;5073197;28;20277;-77
2022/03/04 05:59:47;;;;;;;40.90;15.40;;;-2.30;99.90;;;;;;5094370;28;20206;-80
2022/03/04 06:02:14;;;;;;;41.67;15.37;;;-2.30;99.90;;;;;;5096664;28;20642;-80
2022/03/04 06:04:41;;;;;;;40.63;15.43;;;-2.20;99.90;;;;;;5093861;28;20226;-79
2022/03/04 06:07:07;;;;;;;35.80;16.27;;;-2.30;99.90;;;;;;5091516;28;20207;-80
2022/03/04 06:09:34;;;;;;;42.30;16.17;;;-2.40;99.90;;;;;;5094728;28;20305;-80
2022/03/04 06:12:02;;;;;;;36.37;15.07;;;-2.30;99.90;;;;;;5093949;28;20287;-79
2022/03/04 06:14:29;;;;;;;34.63;14.27;;;-2.30;99.90;;;;;;5089167;28;20207;-78
2022/03/04 06:16:56;;;;;;;37.90;15.10;;;-2.30;99.90;;;;;;5090994;28;20237;-79
2022/03/04 06:19:30;;;;;;;32.17;13.77;;;-2.40;99.90;;;;;;5078648;28;20221;-78
2022/03/04 06:21:56;;;;;;;35.40;14.57;;;-2.40;99.90;;;;;;5089976;28;20304;-78
2022/03/04 06:24:23;;;;;;;37.70;14.67;;;-2.40;99.90;;;;;;5093507;28;20730;-79
2022/03/04 06:26:50;;;;;;;33.30;15.33;;;-2.40;99.90;;;;;;5087855;28;20255;-79
2022/03/04 06:29:17;;;;;;;37.53;14.93;;;-2.40;99.90;;;;;;5094614;28;20196;-78
2022/03/04 06:31:46;;;;;;;40.73;16.03;;;-2.50;99.90;;;;;;5096161;28;20234;-79
2022/03/04 06:34:13;;;;;;;33.80;13.70;;;-2.30;99.90;;;;;;5088683;28;20209;-80
2022/03/04 06:36:40;;;;;;;31.00;13.30;;;-2.40;99.90;;;;;;5069016;28;20207;-80
2022/03/04 06:39:07;;;;;;;36.13;13.90;;;-2.40;99.90;;;;;;5073149;28;20208;-78
2022/03/04 06:41:34;;;;;;;35.23;15.27;;;-2.40;99.90;;;;;;5088255;28;20361;-80
2022/03/04 06:44:01;;;;;;;36.80;15.63;;;-2.40;99.90;;;;;;5091239;28;20245;-78
2022/03/04 06:46:28;;;;;;;39.70;16.63;;;-2.30;99.90;;;;;;5072638;28;20204;-79
2022/03/04 06:48:54;;;;;;;36.97;16.70;;;-2.30;99.90;;;;;;5091789;28;20203;-78
2022/03/04 06:51:21;;;;;;;46.17;16.87;;;-2.30;99.90;;;;;;5085163;28;20550;-79
2022/03/04 06:53:48;;;;;;;44.10;16.50;;;-2.20;99.90;;;;;;5094481;28;20715;-79
2022/03/04 06:56:16;;;;;;;42.93;17.70;;;-2.20;99.90;;;;;;5087198;28;20210;-80
2022/03/04 06:58:48;;;;;;;41.07;16.60;;;-2.20;99.90;;;;;;5094879;28;20218;-79
2022/03/04 07:01:15;;;;;;;61.30;20.90;;;-2.10;99.90;;;;;;5075831;28;20663;-79
2022/03/04 07:03:43;;;;;;;86.77;26.17;;;-1.90;99.90;;;;;;5076910;28;20602;-77
2022/03/04 07:06:09;;;;;;;86.30;27.13;;;-1.30;99.90;;;;;;5090989;28;20208;-77
2022/03/04 07:08:37;;;;;;;87.90;28.80;;;-0.30;99.90;;;;;;5086235;28;20295;-78
2022/03/04 07:11:04;;;;;;;86.70;26.90;;;0.60;99.90;;;;;;5089960;28;20633;-78
2022/03/04 07:13:31;;;;;;;65.63;22.87;;;1.30;99.90;;;;;;5083097;28;20680;-78
2022/03/04 07:15:58;;;;;;;51.77;19.83;;;2.00;99.90;;;;;;5092840;28;20297;-78
2022/03/04 07:18:29;;;;;;;37.77;16.37;;;2.70;99.90;;;;;;5085346;28;20614;-79
2022/03/04 07:20:58;;;;;;;28.73;14.53;;;3.50;99.90;;;;;;5068210;28;20537;-79
2022/03/04 07:23:24;;;;;;;33.90;14.30;;;4.20;99.90;;;;;;5085108;28;20281;-78
2022/03/04 07:25:51;;;;;;;30.60;13.73;;;4.80;99.90;;;;;;5097051;28;20353;-78
2022/03/04 07:28:18;;;;;;;31.30;13.90;;;5.40;99.90;;;;;;5091578;28;20290;-78
2022/03/04 07:30:45;;;;;;;27.77;14.37;;;5.90;99.90;;;;;;5088247;28;20208;-78
2022/03/04 07:33:12;;;;;;;25.10;13.03;;;6.40;99.90;;;;;;5085157;28;20302;-79
2022/03/04 07:35:45;;;;;;;27.77;13.80;;;6.80;99.90;;;;;;5088312;28;20261;-78
2022/03/04 07:38:13;;;;;;;26.93;13.20;;;7.10;99.90;;;;;;5085486;28;21096;-79
2022/03/04 07:40:43;;;;;;;28.20;13.67;;;7.40;99.90;;;;;;5082215;28;20206;-79
2022/03/04 07:43:10;;;;;;;25.67;13.13;;;7.50;99.90;;;;;;5094800;28;20231;-79
2022/03/04 07:45:37;;;;;;;28.93;12.93;;;7.70;99.90;;;;;;5066895;28;20578;-78
2022/03/04 07:48:04;;;;;;;26.87;14.17;;;7.70;99.90;;;;;;5075090;28;20279;-78
2022/03/04 07:50:30;;;;;;;26.30;14.10;;;7.20;99.90;;;;;;5082872;28;20209;-78
2022/03/04 07:52:57;;;;;;;30.53;14.90;;;6.70;99.90;;;;;;5078301;28;20196;-78
2022/03/04 07:55:26;;;;;;;33.47;15.90;;;6.10;99.90;;;;;;5088297;28;20205;-79
2022/03/04 07:57:55;;;;;;;37.70;16.63;;;5.40;99.90;;;;;;5065983;28;20587;-81
2022/03/04 08:00:26;;;;;;;35.20;16.40;;;4.80;99.90;;;;;;5093131;28;20243;-77
2022/03/04 08:02:54;;;;;;;33.20;16.57;;;4.20;99.90;;;;;;5088414;28;20742;-77
2022/03/04 08:05:21;;;;;;;39.13;17.20;;;3.70;99.90;;;;;;5071722;28;20256;-78
2022/03/04 08:07:48;;;;;;;39.23;17.50;;;3.40;99.90;;;;;;5082055;28;20250;-78
2022/03/04 08:10:16;;;;;;;36.53;18.83;;;3.10;99.90;;;;;;5089187;28;20284;-77
2022/03/04 08:12:43;;;;;;;38.37;17.33;;;2.90;99.90;;;;;;5082470;28;20211;-78
2022/03/04 08:15:12;;;;;;;39.30;17.30;;;2.60;99.90;;;;;;5083161;28;20646;-78
2022/03/04 08:17:40;;;;;;;41.10;17.60;;;2.40;99.90;;;;;;5083192;28;20288;-78
2022/03/04 08:20:08;;;;;;;40.40;17.90;;;2.10;99.90;;;;;;5084110;28;20200;-78
2022/03/04 08:22:35;;;;;;;37.53;17.60;;;2.00;99.90;;;;;;5072828;28;20207;-77
2022/03/04 08:25:03;;;;;;;39.93;18.83;;;1.90;99.90;;;;;;5085042;28;20747;-80
2022/03/04 08:27:30;;;;;;;41.00;17.17;;;1.80;99.90;;;;;;5082370;28;20436;-81
2022/03/04 08:29:57;;;;;;;41.27;17.63;;;1.70;99.90;;;;;;5090141;28;20222;-80
2022/03/04 08:32:24;;;;;;;47.83;19.90;;;1.70;99.90;;;;;;5093431;28;20252;-78
2022/03/04 08:34:56;;;;;;;41.93;18.93;;;1.60;99.90;;;;;;5095755;28;20202;-79
2022/03/04 08:37:23;;;;;;;42.73;18.40;;;1.60;99.90;;;;;;5095124;28;20211;-79
2022/03/04 08:39:49;;;;;;;41.10;18.87;;;1.60;99.90;;;;;;5087894;28;20192;-77
2022/03/04 08:42:16;;;;;;;45.30;20.50;;;1.60;99.90;;;;;;5088681;28;20234;-76
2022/03/04 08:44:43;;;;;;;47.83;18.97;;;1.60;99.90;;;;;;5091516;28;20773;-77
2022/03/04 08:47:10;;;;;;;47.03;19.00;;;1.60;99.90;;;;;;5073999;28;20290;-76
2022/03/04 08:49:37;;;;;;;48.57;19.83;;;1.60;99.90;;;;;;5091465;28;20624;-78
2022/03/04 08:52:04;;;;;;;44.17;18.33;;;1.60;99.90;;;;;;5091320;28;20252;-76
2022/03/04 08:54:31;;;;;;;42.10;19.60;;;1.60;99.90;;;;;;5090640;28;20289;-78
2022/03/04 08:56:58;;;;;;;36.83;18.00;;;1.60;99.90;;;;;;5092171;28;20203;-76
2022/03/04 08:59:24;;;;;;;45.93;18.67;;;1.60;99.90;;;;;;5095251;28;20294;-78
2022/03/04 09:01:51;;;;;;;46.17;18.80;;;1.70;99.90;;;;;;5088670;28;20200;-79
2022/03/04 09:04:18;;;;;;;46.53;19.87;;;1.70;99.90;;;;;;5072447;28;20222;-76
2022/03/04 09:06:47;;;;;;;53.43;21.63;;;1.70;99.90;;;;;;5087758;28;20203;-80
2022/03/04 09:09:13;;;;;;;44.07;19.33;;;1.80;99.90;;;;;;5087368;28;20214;-78
2022/03/04 09:11:41;;;;;;;45.33;20.27;;;1.80;99.90;;;;;;5093252;28;20252;-78
2022/03/04 09:14:08;;;;;;;44.00;20.60;;;1.90;99.90;;;;;;5092301;28;20367;-75
2022/03/04 09:16:36;;;;;;;43.87;20.43;;;2.00;99.90;;;;;;5075375;28;20264;-76
2022/03/04 09:19:03;;;;;;;44.93;20.33;;;2.00;99.90;;;;;;5086174;28;20203;-77
2022/03/04 09:21:30;;;;;;;52.30;20.43;;;2.00;99.90;;;;;;5094624;28;20203;-77
2022/03/04 09:23:56;;;;;;;46.00;20.63;;;2.10;99.90;;;;;;5085641;28;20283;-76
2022/03/04 09:26:23;;;;;;;44.83;19.77;;;2.20;99.90;;;;;;5089187;28;20219;-78
2022/03/04 09:28:50;;;;;;;47.83;20.00;;;2.30;99.90;;;;;;5086675;28;20667;-78
2022/03/04 09:31:16;;;;;;;43.77;20.40;;;2.40;99.90;;;;;;5080260;28;20782;-78
2022/03/04 09:33:43;;;;;;;42.47;18.80;;;2.50;99.90;;;;;;5088590;28;20258;-76
2022/03/04 09:36:14;;;;;;;41.63;18.00;;;2.50;99.90;;;;;;5091948;28;20200;-76
2022/03/04 09:38:42;;;;;;;42.30;19.47;;;2.70;99.90;;;;;;5089870;28;20671;-75
2022/03/04 09:41:09;;;;;;;43.13;19.43;;;2.90;99.90;;;;;;5093374;28;21077;-78
2022/03/04 09:43:38;;;;;;;46.90;19.57;;;3.20;99.90;;;;;;5087980;28;20216;-76
2022/03/04 09:46:05;;;;;;;41.60;18.13;;;3.60;99.90;;;;;;5087845;28;20227;-77
2022/03/04 09:48:39;;;;;;;38.87;18.17;;;3.90;99.90;;;;;;5087128;28;20196;-78
2022/03/04 09:51:08;;;;;;;39.20;18.17;;;4.20;99.90;;;;;;5092775;28;20203;-78
2022/03/04 09:53:35;;;;;;;38.73;18.07;;;4.30;99.90;;;;;;5088813;28;20639;-78
2022/03/04 09:56:03;;;;;;;41.70;18.80;;;4.30;99.90;;;;;;5091092;28;20238;-77
2022/03/04 09:58:30;;;;;;;46.03;18.73;;;4.30;99.90;;;;;;5091313;28;20254;-76
2022/03/04 10:00:58;;;;;;;39.77;18.20;;;4.30;99.90;;;;;;5086438;28;20298;-79
2022/03/04 10:03:31;;;;;;;40.03;17.97;;;4.20;99.90;;;;;;5091027;28;20632;-78
2022/03/04 10:06:00;;;;;;;36.43;16.83;;;4.20;99.90;;;;;;5088151;28;20226;-78
2022/03/04 10:08:27;;;;;;;36.17;18.13;;;4.20;99.90;;;;;;5093811;28;20201;-78
2022/03/04 10:10:58;;;;;;;43.53;19.27;;;4.20;99.90;;;;;;5076414;28;20200;-77
2022/03/04 10:13:45;;;;;;;37.93;17.40;;;4.20;99.90;;;;;;5088666;28;20206;-77
2022/03/04 10:16:22;;;;;;;44.37;18.47;;;4.40;99.90;;;;;;5093212;28;20215;-77
2022/03/04 10:19:09;;;;;;;39.10;18.40;;;4.40;99.90;;;;;;5085471;28;20279;-78
2022/03/04 10:21:53;;;;;;;37.23;17.03;;;4.50;99.90;;;;;;5091499;28;20267;-77
2022/03/04 10:24:39;;;;;;;38.73;17.57;;;4.40;99.90;;;;;;5090602;28;20288;-77
2022/03/04 10:27:15;;;;;;;40.10;16.67;;;4.40;99.90;;;;;;5090179;28;20204;-78
2022/03/04 10:29:48;;;;;;;37.73;17.97;;;4.40;99.90;;;;;;5091216;28;20206;-77
2022/03/04 10:32:24;;;;;;;33.10;16.53;;;4.50;99.90;;;;;;5087263;28;20352;-78
2022/03/04 10:35:08;;;;;;;35.77;18.93;;;4.50;99.90;;;;;;5077415;28;20227;-78
2022/03/04 10:37:51;;;;;;;38.57;17.43;;;4.50;99.90;;;;;;5083676;28;20299;-78
2022/03/04 10:40:19;;;;;;;40.37;17.97;;;4.50;99.90;;;;;;5075725;28;20207;-78
2022/03/04 10:43:06;;;;;;;40.77;17.77;;;4.50;99.90;;;;;;5087380;28;20617;-79
2022/03/04 10:45:35;;;;;;;39.40;18.07;;;4.50;99.90;;;;;;5088925;28;20231;-78
2022/03/04 10:48:03;;;;;;;37.20;17.50;;;4.60;99.90;;;;;;5087110;28;20295;-77
2022/03/04 10:50:42;;;;;;;37.77;17.57;;;4.60;99.90;;;;;;5087754;28;20836;-78
2022/03/04 10:53:10;;;;;;;38.00;16.87;;;4.70;99.90;;;;;;5072919;28;20284;-78
2022/03/04 10:55:48;;;;;;;39.40;18.63;;;4.70;99.90;;;;;;5087071;28;20553;-77
2022/03/04 10:58:24;;;;;;;38.83;18.13;;;4.80;99.90;;;;;;5088661;28;20663;-79
2022/03/04 11:00:59;;;;;;;38.13;17.60;;;4.80;99.90;;;;;;5070182;28;20222;-79
2022/03/04 11:03:32;;;;;;;41.53;18.77;;;5.00;99.90;;;;;;5087407;28;20191;-79
2022/03/04 11:06:11;;;;;;;38.17;17.73;;;5.00;99.90;;;;;;5088326;28;20325;-79
2022/03/04 11:08:38;;;;;;;33.80;17.27;;;5.10;99.90;;;;;;5092217;28;20196;-76
2022/03/04 11:11:07;;;;;;;35.53;16.67;;;5.30;99.90;;;;;;5073698;28;20310;-79
2022/03/04 11:13:34;;;;;;;36.10;16.47;;;5.40;99.90;;;;;;5091346;28;20497;-77
2022/03/04 11:16:03;;;;;;;35.87;16.77;;;5.50;99.90;;;;;;5087711;28;20819;-78
2022/03/04 11:18:30;;;;;;;34.80;16.33;;;5.60;99.90;;;;;;5087204;28;20200;-78
2022/03/04 11:20:59;;;;;;;36.30;16.03;;;5.80;99.90;;;;;;5070250;28;20218;-79
2022/03/04 11:23:35;;;;;;;30.90;15.80;;;6.00;99.90;;;;;;5084765;28;20240;-79
2022/03/04 11:26:15;;;;;;;37.43;17.47;;;6.10;99.90;;;;;;5092083;28;20315;-80
2022/03/04 11:28:45;;;;;;;37.13;16.83;;;6.30;99.90;;;;;;5087226;28;20207;-78
2022/03/04 11:31:13;;;;;;;35.93;17.27;;;6.50;99.90;;;;;;5087400;28;20742;-78
2022/03/04 11:33:52;;;;;;;32.30;15.73;;;6.60;99.90;;;;;;5088063;28;20642;-78
2022/03/04 11:36:22;;;;;;;31.00;15.77;;;6.70;99.90;;;;;;5087284;28;20203;-79
2022/03/04 11:38:49;;;;;;;32.20;15.93;;;6.80;99.90;;;;;;5092579;28;20195;-78
2022/03/04 11:41:31;;;;;;;31.03;15.53;;;6.90;99.90;;;;;;5090365;28;20232;-78
2022/03/04 11:43:59;;;;;;;31.43;14.97;;;7.00;99.90;;;;;;5083871;28;20542;-78
2022/03/04 11:46:41;;;;;;;30.73;15.60;;;7.20;99.90;;;;;;5090060;28;20232;-78
2022/03/04 11:49:48;;;;;;;33.70;15.53;;;7.30;99.90;;;;;;5085392;28;20640;-77
2022/03/04 11:52:24;;;;;;;35.50;15.67;;;7.50;99.90;;;;;;5091370;28;20282;-78
2022/03/04 11:54:51;;;;;;;31.07;15.30;;;7.60;99.90;;;;;;5091937;28;20205;-80
2022/03/04 11:57:29;;;;;;;31.43;16.20;;;7.70;99.90;;;;;;5089178;28;20204;-78
2022/03/04 12:00:12;;;;;;;34.57;15.47;;;7.90;99.90;;;;;;5090909;28;20288;-79
2022/03/04 12:02:42;;;;;;;29.17;14.47;;;8.00;99.90;;;;;;5085378;28;20208;-78
2022/03/04 12:05:21;;;;;;;33.50;15.73;;;8.20;99.90;;;;;;5097642;28;20215;-77
2022/03/04 12:07:52;;;;;;;34.40;17.33;;;8.30;99.90;;;;;;5084719;28;20205;-79
2022/03/04 12:10:21;;;;;;;37.47;17.87;;;8.30;99.90;;;;;;5089416;28;20214;-79
2022/03/04 12:13:04;;;;;;;31.93;15.37;;;8.40;99.90;;;;;;5090866;28;20657;-78
2022/03/04 12:15:36;;;;;;;32.60;14.40;;;8.50;99.90;;;;;;5093334;28;20327;-79
2022/03/04 12:18:25;;;;;;;27.43;14.70;;;8.70;99.90;;;;;;5094560;28;20662;-80
2022/03/04 12:20:55;;;;;;;31.20;14.83;;;8.90;99.90;;;;;;5090905;28;20210;-79
2022/03/04 12:23:31;;;;;;;27.53;14.83;;;9.00;99.90;;;;;;5090348;28;20681;-77
2022/03/04 12:26:00;;;;;;;32.00;15.37;;;9.20;99.90;;;;;;5087431;28;20221;-78
2022/03/04 12:28:33;;;;;;;29.53;14.40;;;9.20;99.90;;;;;;5090823;28;20227;-77
2022/03/04 12:31:00;;;;;;;30.93;15.20;;;9.30;99.90;;;;;;5094596;28;20310;-79
2022/03/04 12:33:33;;;;;;;25.93;14.27;;;9.20;99.90;;;;;;5090252;28;20690;-77
2022/03/04 12:36:02;;;;;;;27.43;14.33;;;9.30;99.90;;;;;;5090541;28;20199;-79
2022/03/04 12:38:37;;;;;;;32.27;15.47;;;9.40;99.90;;;;;;5094690;28;20214;-79